sensor_id;sensor_type;location;lat;lon;timestamp;temperature;humidity
25074;DHT22;13066;52.042;5.648;2022-09-09T00:00:21;18.20;99.90
25074;DHT22;13066;52.042;5.648;2022-09-09T00:02:56;18.20;99.90
25074;DHT22;13066;52.042;5.648;2022-09-09T00:05:33;18.20;99.90
25074;DHT22;13066;52.042;5.648;2022-09-09T00:08:29;18.10;99.90
25074;DHT22;13066;52.042;5.648;2022-09-09T00:11:01;18.10;99.90
25074;DHT22;13066;52.042;5.648;2022-09-09T00:13:36;18.10;99.90
25074;DHT22;13066;52.042;5.648;2022-09-09T00:16:15;18.10;99.90
25074;DHT22;13066;52.042;5.648;2022-09-09T00:18:53;18.10;99.90
25074;DHT22;13066;52.042;5.648;2022-09-09T00:21:25;18.10;99.90
25074;DHT22;13066;52.042;5.648;2022-09-09T00:24:28;18.10;99.90
25074;DHT22;13066;52.042;5.648;2022-09-09T00:27:01;18.10;99.90
25074;DHT22;13066;52.042;5.648;2022-09-09T00:29:35;18.00;99.90
25074;DHT22;13066;52.042;5.648;2022-09-09T00:32:21;18.00;99.90
25074;DHT22;13066;52.042;5.648;2022-09-09T00:35:02;18.00;99.90
25074;DHT22;13066;52.042;5.648;2022-09-09T00:37:32;18.00;99.90
25074;DHT22;13066;52.042;5.648;2022-09-09T00:40:07;17.90;99.90
25074;DHT22;13066;52.042;5.648;2022-09-09T00:42:42;17.90;99.90
25074;DHT22;13066;52.042;5.648;2022-09-09T00:45:24;17.90;99.90
25074;DHT22;13066;52.042;5.648;2022-09-09T00:48:10;17.90;99.90
25074;DHT22;13066;52.042;5.648;2022-09-09T00:50:46;17.80;99.90
25074;DHT22;13066;52.042;5.648;2022-09-09T00:53:28;17.80;99.90
25074;DHT22;13066;52.042;5.648;2022-09-09T00:56:13;17.80;99.90
25074;DHT22;13066;52.042;5.648;2022-09-09T00:58:58;17.70;99.90
25074;DHT22;13066;52.042;5.648;2022-09-09T01:01:26;17.70;99.90
25074;DHT22;13066;52.042;5.648;2022-09-09T01:03:56;17.70;99.90
25074;DHT22;13066;52.042;5.648;2022-09-09T01:06:30;17.70;99.90
25074;DHT22;13066;52.042;5.648;2022-09-09T01:09:10;17.70;99.90
25074;DHT22;13066;52.042;5.648;2022-09-09T01:11:57;17.60;99.90
25074;DHT22;13066;52.042;5.648;2022-09-09T01:14:42;17.60;99.90
25074;DHT22;13066;52.042;5.648;2022-09-09T01:17:27;17.60;99.90
25074;DHT22;13066;52.042;5.648;2022-09-09T01:20:07;17.50;99.90
25074;DHT22;13066;52.042;5.648;2022-09-09T01:22:47;17.50;99.90
25074;DHT22;13066;52.042;5.648;2022-09-09T01:28:37;17.60;99.90
25074;DHT22;13066;52.042;5.648;2022-09-09T01:31:07;17.50;99.90
25074;DHT22;13066;52.042;5.648;2022-09-09T01:33:43;17.50;99.90
25074;DHT22;13066;52.042;5.648;2022-09-09T01:36:20;17.40;99.90
25074;DHT22;13066;52.042;5.648;2022-09-09T01:38:49;17.40;99.90
25074;DHT22;13066;52.042;5.648;2022-09-09T01:41:17;17.40;99.90
25074;DHT22;13066;52.042;5.648;2022-09-09T01:43:47;17.40;99.90
25074;DHT22;13066;52.042;5.648;2022-09-09T01:46:16;17.40;99.90
25074;DHT22;13066;52.042;5.648;2022-09-09T01:48:45;17.40;99.90
25074;DHT22;13066;52.042;5.648;2022-09-09T01:51:24;17.40;99.90
25074;DHT22;13066;52.042;5.648;2022-09-09T01:53:53;17.40;99.90
25074;DHT22;13066;52.042;5.648;2022-09-09T01:56:35;17.40;99.90
25074;DHT22;13066;52.042;5.648;2022-09-09T01:59:23;17.30;99.90
25074;DHT22;13066;52.042;5.648;2022-09-09T02:02:08;17.30;99.90
25074;DHT22;13066;52.042;5.648;2022-09-09T02:04:52;17.30;99.90
25074;DHT22;13066;52.042;5.648;2022-09-09T02:07:35;17.30;99.90
25074;DHT22;13066;52.042;5.648;2022-09-09T02:10:10;17.20;99.90
25074;DHT22;13066;52.042;5.648;2022-09-09T02:12:59;17.20;99.90
25074;DHT22;13066;52.042;5.648;2022-09-09T02:15:34;17.20;99.90
25074;DHT22;13066;52.042;5.648;2022-09-09T02:18:08;17.20;99.90
25074;DHT22;13066;52.042;5.648;2022-09-09T02:20:39;17.10;99.90
25074;DHT22;13066;52.042;5.648;2022-09-09T02:23:08;17.10;99.90
25074;DHT22;13066;52.042;5.648;2022-09-09T02:25:46;17.10;99.90
25074;DHT22;13066;52.042;5.648;2022-09-09T02:28:20;17.10;99.90
25074;DHT22;13066;52.042;5.648;2022-09-09T02:30:52;17.10;99.90
25074;DHT22;13066;52.042;5.648;2022-09-09T02:33:26;17.10;99.90
25074;DHT22;13066;52.042;5.648;2022-09-09T02:36:02;17.10;99.90
25074;DHT22;13066;52.042;5.648;2022-09-09T02:38:37;17.10;99.90
25074;DHT22;13066;52.042;5.648;2022-09-09T02:41:06;17.10;99.90
25074;DHT22;13066;52.042;5.648;2022-09-09T02:43:41;17.10;99.90
25074;DHT22;13066;52.042;5.648;2022-09-09T02:46:18;17.00;99.90
25074;DHT22;13066;52.042;5.648;2022-09-09T02:48:58;17.00;99.90
25074;DHT22;13066;52.042;5.648;2022-09-09T02:51:53;17.00;99.90
25074;DHT22;13066;52.042;5.648;2022-09-09T02:54:32;17.00;99.90
25074;DHT22;13066;52.042;5.648;2022-09-09T02:57:06;16.90;99.90
25074;DHT22;13066;52.042;5.648;2022-09-09T02:59:37;16.90;99.90
25074;DHT22;13066;52.042;5.648;2022-09-09T03:02:09;16.90;99.90
25074;DHT22;13066;52.042;5.648;2022-09-09T03:04:38;16.90;99.90
25074;DHT22;13066;52.042;5.648;2022-09-09T03:07:06;16.90;99.90
25074;DHT22;13066;52.042;5.648;2022-09-09T03:09:34;16.90;99.90
25074;DHT22;13066;52.042;5.648;2022-09-09T03:12:16;16.90;99.90
25074;DHT22;13066;52.042;5.648;2022-09-09T03:14:47;16.90;99.90
25074;DHT22;13066;52.042;5.648;2022-09-09T03:17:31;16.90;99.90
25074;DHT22;13066;52.042;5.648;2022-09-09T03:19:59;16.90;99.90
25074;DHT22;13066;52.042;5.648;2022-09-09T03:22:28;16.90;99.90
25074;DHT22;13066;52.042;5.648;2022-09-09T03:24:59;16.90;99.90
25074;DHT22;13066;52.042;5.648;2022-09-09T03:27:27;16.90;99.90
25074;DHT22;13066;52.042;5.648;2022-09-09T03:30:11;16.80;99.90
25074;DHT22;13066;52.042;5.648;2022-09-09T03:32:40;16.80;99.90
25074;DHT22;13066;52.042;5.648;2022-09-09T03:35:17;16.80;99.90
25074;DHT22;13066;52.042;5.648;2022-09-09T03:37:49;16.80;99.90
25074;DHT22;13066;52.042;5.648;2022-09-09T03:40:20;16.80;99.90
25074;DHT22;13066;52.042;5.648;2022-09-09T03:43:00;16.70;99.90
25074;DHT22;13066;52.042;5.648;2022-09-09T03:45:30;16.70;99.90
25074;DHT22;13066;52.042;5.648;2022-09-09T03:48:01;16.70;99.90
25074;DHT22;13066;52.042;5.648;2022-09-09T03:50:29;16.70;99.90
25074;DHT22;13066;52.042;5.648;2022-09-09T03:52:58;16.70;99.90
25074;DHT22;13066;52.042;5.648;2022-09-09T03:55:35;16.70;99.90
25074;DHT22;13066;52.042;5.648;2022-09-09T03:58:17;16.70;99.90
25074;DHT22;13066;52.042;5.648;2022-09-09T04:00:53;16.70;99.90
25074;DHT22;13066;52.042;5.648;2022-09-09T04:03:23;16.70;99.90
25074;DHT22;13066;52.042;5.648;2022-09-09T04:05:55;16.80;99.90
25074;DHT22;13066;52.042;5.648;2022-09-09T04:08:24;16.70;99.90
25074;DHT22;13066;52.042;5.648;2022-09-09T04:11:00;16.70;99.90
25074;DHT22;13066;52.042;5.648;2022-09-09T04:13:28;16.70;99.90
25074;DHT22;13066;52.042;5.648;2022-09-09T04:16:01;16.70;99.90
25074;DHT22;13066;52.042;5.648;2022-09-09T04:18:32;16.80;99.90
25074;DHT22;13066;52.042;5.648;2022-09-09T04:21:01;16.80;99.90
25074;DHT22;13066;52.042;5.648;2022-09-09T04:23:30;16.70;99.90
25074;DHT22;13066;52.042;5.648;2022-09-09T04:26:02;16.80;99.90
25074;DHT22;13066;52.042;5.648;2022-09-09T04:28:32;16.70;99.90
25074;DHT22;13066;52.042;5.648;2022-09-09T04:31:04;16.70;99.90
25074;DHT22;13066;52.042;5.648;2022-09-09T04:33:34;16.70;99.90
25074;DHT22;13066;52.042;5.648;2022-09-09T04:36:06;16.70;99.90
25074;DHT22;13066;52.042;5.648;2022-09-09T04:38:34;16.70;99.90
25074;DHT22;13066;52.042;5.648;2022-09-09T04:41:03;16.70;99.90
25074;DHT22;13066;52.042;5.648;2022-09-09T04:43:34;16.70;99.90
25074;DHT22;13066;52.042;5.648;2022-09-09T04:46:05;16.70;99.90
25074;DHT22;13066;52.042;5.648;2022-09-09T04:48:35;16.70;99.90
25074;DHT22;13066;52.042;5.648;2022-09-09T04:51:05;16.70;99.90
25074;DHT22;13066;52.042;5.648;2022-09-09T04:53:33;16.70;99.90
25074;DHT22;13066;52.042;5.648;2022-09-09T04:56:03;16.70;99.90
25074;DHT22;13066;52.042;5.648;2022-09-09T04:58:32;16.70;99.90
25074;DHT22;13066;52.042;5.648;2022-09-09T05:01:07;16.80;99.90
25074;DHT22;13066;52.042;5.648;2022-09-09T05:03:37;16.80;99.90
25074;DHT22;13066;52.042;5.648;2022-09-09T05:06:07;16.80;99.90
25074;DHT22;13066;52.042;5.648;2022-09-09T05:08:39;16.80;99.90
25074;DHT22;13066;52.042;5.648;2022-09-09T05:11:14;16.80;99.90
25074;DHT22;13066;52.042;5.648;2022-09-09T05:13:42;16.80;99.90
25074;DHT22;13066;52.042;5.648;2022-09-09T05:16:11;16.80;99.90
25074;DHT22;13066;52.042;5.648;2022-09-09T05:18:41;16.80;99.90
25074;DHT22;13066;52.042;5.648;2022-09-09T05:21:10;16.80;99.90
25074;DHT22;13066;52.042;5.648;2022-09-09T05:23:39;16.80;99.90
25074;DHT22;13066;52.042;5.648;2022-09-09T05:26:16;16.80;99.90
25074;DHT22;13066;52.042;5.648;2022-09-09T05:28:47;16.80;99.90
25074;DHT22;13066;52.042;5.648;2022-09-09T05:31:19;16.80;99.90
25074;DHT22;13066;52.042;5.648;2022-09-09T05:33:48;16.80;99.90
25074;DHT22;13066;52.042;5.648;2022-09-09T05:36:26;16.80;99.90
25074;DHT22;13066;52.042;5.648;2022-09-09T05:38:57;16.80;99.90
25074;DHT22;13066;52.042;5.648;2022-09-09T05:41:28;16.80;99.90
25074;DHT22;13066;52.042;5.648;2022-09-09T05:44:00;16.80;99.90
25074;DHT22;13066;52.042;5.648;2022-09-09T05:46:30;16.80;99.90
25074;DHT22;13066;52.042;5.648;2022-09-09T05:49:00;16.80;99.90
25074;DHT22;13066;52.042;5.648;2022-09-09T05:51:38;16.80;99.90
25074;DHT22;13066;52.042;5.648;2022-09-09T05:54:11;16.80;99.90
25074;DHT22;13066;52.042;5.648;2022-09-09T05:56:42;16.80;99.90
25074;DHT22;13066;52.042;5.648;2022-09-09T05:59:14;16.80;99.90
25074;DHT22;13066;52.042;5.648;2022-09-09T06:01:48;16.80;99.90
25074;DHT22;13066;52.042;5.648;2022-09-09T06:04:17;16.80;99.90
25074;DHT22;13066;52.042;5.648;2022-09-09T06:06:48;16.80;99.90
25074;DHT22;13066;52.042;5.648;2022-09-09T06:09:19;16.80;99.90
25074;DHT22;13066;52.042;5.648;2022-09-09T06:11:50;16.80;99.90
25074;DHT22;13066;52.042;5.648;2022-09-09T06:14:21;16.90;99.90
25074;DHT22;13066;52.042;5.648;2022-09-09T06:16:49;16.90;99.90
25074;DHT22;13066;52.042;5.648;2022-09-09T06:19:20;16.90;99.90
25074;DHT22;13066;52.042;5.648;2022-09-09T06:22:00;16.90;99.90
25074;DHT22;13066;52.042;5.648;2022-09-09T06:24:31;16.90;99.90
25074;DHT22;13066;52.042;5.648;2022-09-09T06:26:59;16.90;99.90
25074;DHT22;13066;52.042;5.648;2022-09-09T06:29:41;16.90;99.90
25074;DHT22;13066;52.042;5.648;2022-09-09T06:32:12;16.90;99.90
25074;DHT22;13066;52.042;5.648;2022-09-09T06:34:51;17.00;99.90
25074;DHT22;13066;52.042;5.648;2022-09-09T06:37:22;17.00;99.90
25074;DHT22;13066;52.042;5.648;2022-09-09T06:39:50;17.00;99.90
25074;DHT22;13066;52.042;5.648;2022-09-09T06:42:21;17.00;99.90
25074;DHT22;13066;52.042;5.648;2022-09-09T06:44:50;17.00;99.90
25074;DHT22;13066;52.042;5.648;2022-09-09T06:47:32;17.00;99.90
25074;DHT22;13066;52.042;5.648;2022-09-09T06:50:05;17.00;99.90
25074;DHT22;13066;52.042;5.648;2022-09-09T06:52:39;17.00;99.90
25074;DHT22;13066;52.042;5.648;2022-09-09T06:55:17;17.10;99.90
25074;DHT22;13066;52.042;5.648;2022-09-09T06:57:48;17.10;99.90
25074;DHT22;13066;52.042;5.648;2022-09-09T07:00:26;17.10;99.90
25074;DHT22;13066;52.042;5.648;2022-09-09T07:03:03;17.10;99.90
25074;DHT22;13066;52.042;5.648;2022-09-09T07:05:33;17.20;99.90
25074;DHT22;13066;52.042;5.648;2022-09-09T07:08:02;17.20;99.90
25074;DHT22;13066;52.042;5.648;2022-09-09T07:10:36;17.20;99.90
25074;DHT22;13066;52.042;5.648;2022-09-09T07:13:04;17.20;99.90
25074;DHT22;13066;52.042;5.648;2022-09-09T07:15:35;17.30;99.90
25074;DHT22;13066;52.042;5.648;2022-09-09T07:18:10;17.30;99.90
25074;DHT22;13066;52.042;5.648;2022-09-09T07:20:54;17.30;99.90
25074;DHT22;13066;52.042;5.648;2022-09-09T07:23:23;17.30;99.90
25074;DHT22;13066;52.042;5.648;2022-09-09T07:25:51;17.40;99.90
25074;DHT22;13066;52.042;5.648;2022-09-09T07:28:23;17.40;99.90
25074;DHT22;13066;52.042;5.648;2022-09-09T07:30:55;17.50;99.90
25074;DHT22;13066;52.042;5.648;2022-09-09T07:33:24;17.50;99.90
25074;DHT22;13066;52.042;5.648;2022-09-09T07:36:05;17.60;99.90
25074;DHT22;13066;52.042;5.648;2022-09-09T07:38:38;17.60;99.90
25074;DHT22;13066;52.042;5.648;2022-09-09T07:41:08;17.70;99.90
25074;DHT22;13066;52.042;5.648;2022-09-09T07:43:39;17.70;99.90
25074;DHT22;13066;52.042;5.648;2022-09-09T07:46:15;17.80;99.90
25074;DHT22;13066;52.042;5.648;2022-09-09T07:48:44;17.90;99.90
25074;DHT22;13066;52.042;5.648;2022-09-09T07:51:18;17.90;99.90
25074;DHT22;13066;52.042;5.648;2022-09-09T07:53:58;18.00;99.90
25074;DHT22;13066;52.042;5.648;2022-09-09T07:56:27;18.10;99.90
25074;DHT22;13066;52.042;5.648;2022-09-09T07:58:56;18.10;99.90
25074;DHT22;13066;52.042;5.648;2022-09-09T08:01:36;18.10;99.90
25074;DHT22;13066;52.042;5.648;2022-09-09T08:04:14;18.20;99.90
25074;DHT22;13066;52.042;5.648;2022-09-09T08:06:46;18.30;99.90
25074;DHT22;13066;52.042;5.648;2022-09-09T08:09:27;18.30;99.90
25074;DHT22;13066;52.042;5.648;2022-09-09T08:11:56;18.40;99.90
25074;DHT22;13066;52.042;5.648;2022-09-09T08:14:27;18.40;99.90
25074;DHT22;13066;52.042;5.648;2022-09-09T08:16:56;18.40;99.90
25074;DHT22;13066;52.042;5.648;2022-09-09T08:19:27;18.40;99.90
25074;DHT22;13066;52.042;5.648;2022-09-09T08:21:58;18.40;99.90
25074;DHT22;13066;52.042;5.648;2022-09-09T08:24:26;18.40;99.90
25074;DHT22;13066;52.042;5.648;2022-09-09T08:26:57;18.50;99.90
25074;DHT22;13066;52.042;5.648;2022-09-09T08:29:25;18.40;99.90
25074;DHT22;13066;52.042;5.648;2022-09-09T08:32:07;18.40;99.90
25074;DHT22;13066;52.042;5.648;2022-09-09T08:34:37;18.50;99.90
25074;DHT22;13066;52.042;5.648;2022-09-09T08:37:14;18.50;99.90
25074;DHT22;13066;52.042;5.648;2022-09-09T08:39:42;18.50;99.90
25074;DHT22;13066;52.042;5.648;2022-09-09T08:42:41;18.50;99.90
25074;DHT22;13066;52.042;5.648;2022-09-09T08:45:28;18.50;99.90
25074;DHT22;13066;52.042;5.648;2022-09-09T08:48:23;18.50;99.90
25074;DHT22;13066;52.042;5.648;2022-09-09T08:50:57;18.50;99.90
25074;DHT22;13066;52.042;5.648;2022-09-09T08:53:37;18.50;99.90
25074;DHT22;13066;52.042;5.648;2022-09-09T08:56:11;18.50;99.90
25074;DHT22;13066;52.042;5.648;2022-09-09T08:58:43;18.50;99.90
25074;DHT22;13066;52.042;5.648;2022-09-09T09:01:32;18.50;99.90
25074;DHT22;13066;52.042;5.648;2022-09-09T09:04:10;18.50;99.90
25074;DHT22;13066;52.042;5.648;2022-09-09T09:06:46;18.50;99.80
25074;DHT22;13066;52.042;5.648;2022-09-09T09:09:36;18.60;99.70
25074;DHT22;13066;52.042;5.648;2022-09-09T09:12:42;18.70;99.60
25074;DHT22;13066;52.042;5.648;2022-09-09T09:15:13;18.70;99.40
25074;DHT22;13066;52.042;5.648;2022-09-09T09:17:58;18.80;99.40
25074;DHT22;13066;52.042;5.648;2022-09-09T09:20:42;18.80;99.20
25074;DHT22;13066;52.042;5.648;2022-09-09T09:23:12;18.80;99.10
25074;DHT22;13066;52.042;5.648;2022-09-09T09:25:45;18.90;98.80
25074;DHT22;13066;52.042;5.648;2022-09-09T09:28:16;18.90;98.80
25074;DHT22;13066;52.042;5.648;2022-09-09T09:30:51;18.90;98.60
25074;DHT22;13066;52.042;5.648;2022-09-09T09:33:24;19.00;98.30
25074;DHT22;13066;52.042;5.648;2022-09-09T09:35:54;19.00;98.10
25074;DHT22;13066;52.042;5.648;2022-09-09T09:38:24;19.00;98.00
25074;DHT22;13066;52.042;5.648;2022-09-09T09:41:29;19.00;98.00
25074;DHT22;13066;52.042;5.648;2022-09-09T09:43:58;19.00;97.90
25074;DHT22;13066;52.042;5.648;2022-09-09T09:46:27;19.00;97.90
25074;DHT22;13066;52.042;5.648;2022-09-09T09:49:00;19.00;97.80
25074;DHT22;13066;52.042;5.648;2022-09-09T09:51:30;19.10;97.80
25074;DHT22;13066;52.042;5.648;2022-09-09T09:54:14;19.10;97.70
25074;DHT22;13066;52.042;5.648;2022-09-09T09:56:45;19.20;97.70
25074;DHT22;13066;52.042;5.648;2022-09-09T09:59:23;19.20;97.60
25074;DHT22;13066;52.042;5.648;2022-09-09T10:02:16;19.20;97.70
25074;DHT22;13066;52.042;5.648;2022-09-09T10:05:00;19.30;97.70
25074;DHT22;13066;52.042;5.648;2022-09-09T10:07:29;19.30;97.60
25074;DHT22;13066;52.042;5.648;2022-09-09T10:09:58;19.30;97.50
25074;DHT22;13066;52.042;5.648;2022-09-09T10:12:37;19.40;97.40
25074;DHT22;13066;52.042;5.648;2022-09-09T10:15:30;19.40;97.20
25074;DHT22;13066;52.042;5.648;2022-09-09T10:18:08;19.40;97.00
25074;DHT22;13066;52.042;5.648;2022-09-09T10:21:03;19.30;97.00
25074;DHT22;13066;52.042;5.648;2022-09-09T10:23:48;19.30;97.00
25074;DHT22;13066;52.042;5.648;2022-09-09T10:26:39;19.30;97.10
25074;DHT22;13066;52.042;5.648;2022-09-09T10:32:46;19.30;97.20
25074;DHT22;13066;52.042;5.648;2022-09-09T10:35:47;19.30;97.20
25074;DHT22;13066;52.042;5.648;2022-09-09T10:38:24;19.30;97.20
25074;DHT22;13066;52.042;5.648;2022-09-09T10:41:15;19.30;97.00
25074;DHT22;13066;52.042;5.648;2022-09-09T10:44:29;19.30;97.10
25074;DHT22;13066;52.042;5.648;2022-09-09T10:47:37;19.20;97.90
25074;DHT22;13066;52.042;5.648;2022-09-09T10:53:36;19.00;98.90
25074;DHT22;13066;52.042;5.648;2022-09-09T10:56:08;19.00;99.50
25074;DHT22;13066;52.042;5.648;2022-09-09T10:58:40;18.90;99.90
25074;DHT22;13066;52.042;5.648;2022-09-09T11:01:15;18.90;99.90
25074;DHT22;13066;52.042;5.648;2022-09-09T11:03:47;18.80;99.90
25074;DHT22;13066;52.042;5.648;2022-09-09T11:06:19;18.80;99.90
25074;DHT22;13066;52.042;5.648;2022-09-09T11:08:48;18.80;99.90
25074;DHT22;13066;52.042;5.648;2022-09-09T11:11:25;18.80;99.90
25074;DHT22;13066;52.042;5.648;2022-09-09T11:13:59;18.80;99.90
25074;DHT22;13066;52.042;5.648;2022-09-09T11:16:36;18.80;99.90
25074;DHT22;13066;52.042;5.648;2022-09-09T11:19:24;18.80;99.90
25074;DHT22;13066;52.042;5.648;2022-09-09T11:21:55;18.90;99.90
25074;DHT22;13066;52.042;5.648;2022-09-09T11:24:29;18.90;99.90
25074;DHT22;13066;52.042;5.648;2022-09-09T11:27:01;19.00;99.90
25074;DHT22;13066;52.042;5.648;2022-09-09T11:29:56;19.00;99.90
25074;DHT22;13066;52.042;5.648;2022-09-09T11:32:57;19.00;99.90
25074;DHT22;13066;52.042;5.648;2022-09-09T11:35:46;19.00;99.90
25074;DHT22;13066;52.042;5.648;2022-09-09T11:38:20;19.00;99.90
25074;DHT22;13066;52.042;5.648;2022-09-09T11:40:55;19.00;99.90
25074;DHT22;13066;52.042;5.648;2022-09-09T11:43:30;19.10;99.90
25074;DHT22;13066;52.042;5.648;2022-09-09T11:46:02;19.10;99.90
25074;DHT22;13066;52.042;5.648;2022-09-09T11:48:37;19.20;99.90
25074;DHT22;13066;52.042;5.648;2022-09-09T11:51:08;19.20;99.90
25074;DHT22;13066;52.042;5.648;2022-09-09T11:53:59;19.30;99.90
25074;DHT22;13066;52.042;5.648;2022-09-09T11:56:30;19.30;99.90
25074;DHT22;13066;52.042;5.648;2022-09-09T11:59:01;19.30;99.90
25074;DHT22;13066;52.042;5.648;2022-09-09T12:01:38;19.30;99.90
25074;DHT22;13066;52.042;5.648;2022-09-09T12:04:22;19.30;99.90
25074;DHT22;13066;52.042;5.648;2022-09-09T12:07:30;19.40;99.90
25074;DHT22;13066;52.042;5.648;2022-09-09T12:10:03;19.40;99.90
25074;DHT22;13066;52.042;5.648;2022-09-09T12:12:33;19.40;99.90
25074;DHT22;13066;52.042;5.648;2022-09-09T12:15:28;19.40;99.90
25074;DHT22;13066;52.042;5.648;2022-09-09T12:17:58;19.50;99.90
25074;DHT22;13066;52.042;5.648;2022-09-09T12:20:36;19.50;99.90
25074;DHT22;13066;52.042;5.648;2022-09-09T12:23:27;19.50;99.90
25074;DHT22;13066;52.042;5.648;2022-09-09T12:26:06;19.60;99.80
25074;DHT22;13066;52.042;5.648;2022-09-09T12:29:02;19.50;99.80
25074;DHT22;13066;52.042;5.648;2022-09-09T12:31:38;19.60;99.70
25074;DHT22;13066;52.042;5.648;2022-09-09T12:34:15;19.50;99.60
25074;DHT22;13066;52.042;5.648;2022-09-09T12:36:55;19.50;99.40
25074;DHT22;13066;52.042;5.648;2022-09-09T12:39:30;19.50;99.50
25074;DHT22;13066;52.042;5.648;2022-09-09T12:42:20;19.50;99.90
25074;DHT22;13066;52.042;5.648;2022-09-09T12:44:56;19.60;99.90
25074;DHT22;13066;52.042;5.648;2022-09-09T12:47:32;19.70;99.90
25074;DHT22;13066;52.042;5.648;2022-09-09T12:50:03;19.70;99.90
25074;DHT22;13066;52.042;5.648;2022-09-09T12:52:35;19.80;99.70
25074;DHT22;13066;52.042;5.648;2022-09-09T12:55:06;19.80;99.70
25074;DHT22;13066;52.042;5.648;2022-09-09T12:57:37;19.90;99.20
25074;DHT22;13066;52.042;5.648;2022-09-09T13:00:11;19.90;99.00
25074;DHT22;13066;52.042;5.648;2022-09-09T13:02:49;19.90;99.00
25074;DHT22;13066;52.042;5.648;2022-09-09T13:05:23;19.90;99.30
25074;DHT22;13066;52.042;5.648;2022-09-09T13:08:11;20.00;98.80
25074;DHT22;13066;52.042;5.648;2022-09-09T13:10:43;20.00;98.70
25074;DHT22;13066;52.042;5.648;2022-09-09T13:13:27;19.90;98.60
25074;DHT22;13066;52.042;5.648;2022-09-09T13:15:58;19.90;98.60
25074;DHT22;13066;52.042;5.648;2022-09-09T13:18:29;19.90;98.40
25074;DHT22;13066;52.042;5.648;2022-09-09T13:20:58;19.90;98.20
25074;DHT22;13066;52.042;5.648;2022-09-09T13:23:29;19.90;98.20
25074;DHT22;13066;52.042;5.648;2022-09-09T13:26:00;19.90;98.20
25074;DHT22;13066;52.042;5.648;2022-09-09T13:28:30;19.90;98.20
25074;DHT22;13066;52.042;5.648;2022-09-09T13:31:00;19.90;98.20
25074;DHT22;13066;52.042;5.648;2022-09-09T13:33:32;20.00;98.20
25074;DHT22;13066;52.042;5.648;2022-09-09T13:36:03;20.00;98.10
25074;DHT22;13066;52.042;5.648;2022-09-09T13:38:36;20.00;97.90
25074;DHT22;13066;52.042;5.648;2022-09-09T13:41:10;20.10;97.80
25074;DHT22;13066;52.042;5.648;2022-09-09T13:43:42;20.10;97.90
25074;DHT22;13066;52.042;5.648;2022-09-09T13:46:25;20.10;97.80
25074;DHT22;13066;52.042;5.648;2022-09-09T13:49:22;20.10;98.00
25074;DHT22;13066;52.042;5.648;2022-09-09T13:51:51;20.10;98.00
25074;DHT22;13066;52.042;5.648;2022-09-09T13:54:22;20.20;97.90
25074;DHT22;13066;52.042;5.648;2022-09-09T13:56:58;20.20;97.70
25074;DHT22;13066;52.042;5.648;2022-09-09T13:59:31;20.40;97.60
25074;DHT22;13066;52.042;5.648;2022-09-09T14:02:19;20.40;97.40
25074;DHT22;13066;52.042;5.648;2022-09-09T14:05:10;20.50;97.10
25074;DHT22;13066;52.042;5.648;2022-09-09T14:07:42;20.60;96.90
25074;DHT22;13066;52.042;5.648;2022-09-09T14:10:12;20.60;96.60
25074;DHT22;13066;52.042;5.648;2022-09-09T14:12:42;20.60;96.50
25074;DHT22;13066;52.042;5.648;2022-09-09T14:15:19;20.60;96.30
25074;DHT22;13066;52.042;5.648;2022-09-09T14:17:51;20.60;96.50
25074;DHT22;13066;52.042;5.648;2022-09-09T14:20:22;20.70;96.30
25074;DHT22;13066;52.042;5.648;2022-09-09T14:22:50;20.70;95.90
25074;DHT22;13066;52.042;5.648;2022-09-09T14:25:24;20.70;95.90
25074;DHT22;13066;52.042;5.648;2022-09-09T14:28:00;20.70;96.00
25074;DHT22;13066;52.042;5.648;2022-09-09T14:30:28;20.80;96.10
25074;DHT22;13066;52.042;5.648;2022-09-09T14:33:02;20.90;96.10
25074;DHT22;13066;52.042;5.648;2022-09-09T14:35:30;21.00;96.10
25074;DHT22;13066;52.042;5.648;2022-09-09T14:38:03;21.00;96.20
25074;DHT22;13066;52.042;5.648;2022-09-09T14:40:34;21.10;96.80
25074;DHT22;13066;52.042;5.648;2022-09-09T14:43:02;21.20;96.40
25074;DHT22;13066;52.042;5.648;2022-09-09T14:45:35;21.30;96.20
25074;DHT22;13066;52.042;5.648;2022-09-09T14:48:30;21.40;95.90
25074;DHT22;13066;52.042;5.648;2022-09-09T14:51:14;21.40;95.80
25074;DHT22;13066;52.042;5.648;2022-09-09T14:53:43;21.50;95.70
25074;DHT22;13066;52.042;5.648;2022-09-09T14:56:37;21.50;95.90
25074;DHT22;13066;52.042;5.648;2022-09-09T14:59:05;21.60;95.70
25074;DHT22;13066;52.042;5.648;2022-09-09T15:01:33;21.60;95.40
25074;DHT22;13066;52.042;5.648;2022-09-09T15:04:04;21.60;95.20
25074;DHT22;13066;52.042;5.648;2022-09-09T15:06:35;21.60;95.30
25074;DHT22;13066;52.042;5.648;2022-09-09T15:09:05;21.60;95.20
25074;DHT22;13066;52.042;5.648;2022-09-09T15:11:35;21.70;95.40
25074;DHT22;13066;52.042;5.648;2022-09-09T15:14:07;21.80;95.20
25074;DHT22;13066;52.042;5.648;2022-09-09T15:16:36;21.90;94.90
25074;DHT22;13066;52.042;5.648;2022-09-09T15:19:05;21.90;94.90
25074;DHT22;13066;52.042;5.648;2022-09-09T15:21:37;22.00;94.80
25074;DHT22;13066;52.042;5.648;2022-09-09T15:24:08;22.10;94.50
25074;DHT22;13066;52.042;5.648;2022-09-09T15:26:37;22.10;94.20
25074;DHT22;13066;52.042;5.648;2022-09-09T15:29:07;22.20;94.10
25074;DHT22;13066;52.042;5.648;2022-09-09T15:31:38;22.20;93.80
25074;DHT22;13066;52.042;5.648;2022-09-09T15:34:07;22.10;93.60
25074;DHT22;13066;52.042;5.648;2022-09-09T15:36:40;22.00;94.00
25074;DHT22;13066;52.042;5.648;2022-09-09T15:39:09;22.00;93.80
25074;DHT22;13066;52.042;5.648;2022-09-09T15:41:39;21.90;93.90
25074;DHT22;13066;52.042;5.648;2022-09-09T15:44:10;21.90;93.90
25074;DHT22;13066;52.042;5.648;2022-09-09T15:46:40;21.80;94.00
25074;DHT22;13066;52.042;5.648;2022-09-09T15:49:19;21.70;94.10
25074;DHT22;13066;52.042;5.648;2022-09-09T15:51:51;21.60;94.30
25074;DHT22;13066;52.042;5.648;2022-09-09T15:54:22;21.60;94.70
25074;DHT22;13066;52.042;5.648;2022-09-09T15:56:58;21.60;94.80
25074;DHT22;13066;52.042;5.648;2022-09-09T15:59:29;21.60;94.80
25074;DHT22;13066;52.042;5.648;2022-09-09T16:02:01;21.60;94.70
25074;DHT22;13066;52.042;5.648;2022-09-09T16:04:29;21.50;94.50
25074;DHT22;13066;52.042;5.648;2022-09-09T16:07:07;21.50;94.50
25074;DHT22;13066;52.042;5.648;2022-09-09T16:09:37;21.50;94.50
25074;DHT22;13066;52.042;5.648;2022-09-09T16:12:08;21.50;94.60
25074;DHT22;13066;52.042;5.648;2022-09-09T16:14:53;21.40;94.60
25074;DHT22;13066;52.042;5.648;2022-09-09T16:17:21;21.40;94.60
25074;DHT22;13066;52.042;5.648;2022-09-09T16:19:49;21.30;95.10
25074;DHT22;13066;52.042;5.648;2022-09-09T16:22:17;21.30;94.80
25074;DHT22;13066;52.042;5.648;2022-09-09T16:24:45;21.30;94.70
25074;DHT22;13066;52.042;5.648;2022-09-09T16:27:13;21.30;94.40
25074;DHT22;13066;52.042;5.648;2022-09-09T16:29:41;21.30;93.90